createdAt,value
2023-11-05T00:02:21.255Z,8.00
2023-11-05T00:04:48.206Z,8.10
2023-11-05T00:07:15.289Z,8.00
2023-11-05T00:09:42.494Z,8.00
2023-11-05T00:12:09.528Z,8.00
2023-11-05T00:14:36.497Z,8.00
2023-11-05T00:17:04.699Z,7.90
2023-11-05T00:19:31.654Z,8.00
2023-11-05T00:21:58.649Z,7.90
2023-11-05T00:24:25.693Z,7.90
2023-11-05T00:26:52.654Z,7.90
2023-11-05T00:29:20.080Z,7.90
2023-11-05T00:31:47.127Z,7.80
2023-11-05T00:34:15.356Z,7.80
2023-11-05T00:36:42.397Z,7.80
2023-11-05T00:39:09.626Z,7.80
2023-11-05T00:41:36.919Z,7.80
2023-11-05T00:44:03.965Z,7.70
2023-11-05T00:46:30.972Z,7.60
2023-11-05T00:48:58.186Z,7.60
2023-11-05T00:51:25.144Z,7.50
2023-11-05T00:53:52.151Z,7.50
2023-11-05T00:56:19.112Z,7.50
2023-11-05T00:58:46.490Z,7.40
2023-11-05T01:01:13.490Z,7.30
2023-11-05T01:03:40.789Z,7.30
2023-11-05T01:06:07.892Z,7.30
2023-11-05T01:08:34.855Z,7.20
2023-11-05T01:11:01.927Z,7.10
2023-11-05T01:13:29.049Z,7.10
2023-11-05T01:15:56.027Z,7.00
2023-11-05T01:18:23.578Z,7.00
2023-11-05T01:20:50.878Z,7.00
2023-11-05T01:23:17.871Z,7.00
2023-11-05T01:25:44.969Z,7.00
2023-11-05T01:28:11.943Z,7.00
2023-11-05T01:30:38.920Z,7.00
2023-11-05T01:33:06.006Z,7.00
2023-11-05T01:35:33.067Z,7.00
2023-11-05T01:38:23.752Z,7.00
2023-11-05T01:40:55.836Z,7.00
2023-11-05T01:43:27.728Z,7.00
2023-11-05T01:45:56.801Z,7.00
2023-11-05T01:48:29.580Z,7.10
2023-11-05T01:51:12.135Z,7.10
2023-11-05T01:53:51.001Z,7.20
2023-11-05T01:56:28.715Z,7.20
2023-11-05T01:59:05.691Z,7.20
2023-11-05T02:01:35.835Z,7.30
2023-11-05T02:04:13.887Z,7.40
2023-11-05T02:06:48.157Z,7.30
2023-11-05T02:09:19.087Z,7.40
2023-11-05T02:11:48.901Z,7.40
2023-11-05T02:14:36.954Z,7.40
2023-11-05T02:17:13.521Z,7.40
2023-11-05T02:19:43.785Z,7.50
2023-11-05T02:22:23.632Z,7.50
2023-11-05T02:24:53.289Z,7.50
2023-11-05T02:27:20.754Z,7.60
2023-11-05T02:29:56.261Z,7.60
2023-11-05T02:32:30.529Z,7.60
2023-11-05T02:35:03.304Z,7.60
2023-11-05T02:37:33.025Z,7.50
2023-11-05T02:40:00.031Z,7.50
2023-11-05T02:42:26.953Z,7.50
2023-11-05T02:44:53.992Z,7.50
2023-11-05T02:47:20.959Z,7.40
2023-11-05T02:49:47.891Z,7.40
2023-11-05T02:52:15.411Z,7.30
2023-11-05T02:54:42.363Z,7.30
2023-11-05T02:57:09.333Z,7.30
2023-11-05T02:59:36.300Z,7.30
2023-11-05T03:02:03.263Z,7.20
2023-11-05T03:04:30.282Z,7.10
2023-11-05T03:06:57.307Z,7.00
2023-11-05T03:09:25.882Z,7.00
2023-11-05T03:11:56.042Z,7.00
2023-11-05T03:14:23.116Z,7.00
2023-11-05T03:16:50.272Z,7.00
2023-11-05T03:19:17.425Z,6.90
2023-11-05T03:21:44.448Z,7.00
2023-11-05T03:24:11.425Z,6.90
2023-11-05T03:26:38.379Z,7.00
2023-11-05T03:29:05.426Z,6.90
2023-11-05T03:31:32.563Z,6.90
2023-11-05T03:33:59.674Z,6.90
2023-11-05T03:36:26.671Z,6.80
2023-11-05T03:38:53.568Z,6.80
2023-11-05T03:41:20.517Z,6.70
2023-11-05T03:43:47.894Z,6.60
2023-11-05T03:46:15.498Z,6.60
2023-11-05T03:48:46.035Z,6.50
2023-11-05T03:51:17.268Z,6.50
2023-11-05T03:53:44.235Z,6.40
2023-11-05T03:56:12.943Z,6.40
2023-11-05T03:58:41.014Z,6.30
2023-11-05T04:01:14.330Z,6.30
2023-11-05T04:03:41.908Z,6.20
2023-11-05T04:06:09.116Z,6.20
2023-11-05T04:08:36.010Z,6.10
2023-11-05T04:11:02.993Z,6.10
2023-11-05T04:13:30.154Z,6.10
2023-11-05T04:16:00.619Z,6.00
2023-11-05T04:18:27.951Z,6.10
2023-11-05T04:20:55.021Z,6.00
2023-11-05T04:23:22.024Z,6.00
2023-11-05T04:25:49.301Z,5.90
2023-11-05T04:28:16.379Z,5.90
2023-11-05T04:30:43.317Z,5.90
2023-11-05T04:33:10.433Z,5.80
2023-11-05T04:35:37.493Z,5.70
2023-11-05T04:38:04.539Z,5.70
2023-11-05T04:40:31.598Z,5.60
2023-11-05T04:42:58.550Z,5.60
2023-11-05T04:45:25.441Z,5.50
2023-11-05T04:47:52.505Z,5.50
2023-11-05T04:50:19.564Z,5.40
2023-11-05T04:52:46.591Z,5.40
2023-11-05T04:55:13.659Z,5.40
2023-11-05T04:57:40.678Z,5.30
2023-11-05T05:00:08.471Z,5.30
2023-11-05T05:02:35.460Z,5.20
2023-11-05T05:05:02.864Z,5.30
2023-11-05T05:07:29.930Z,5.20
2023-11-05T05:09:56.945Z,5.20
2023-11-05T05:12:25.211Z,5.20
2023-11-05T05:14:52.297Z,5.20
2023-11-05T05:17:19.375Z,5.30
2023-11-05T05:19:47.599Z,5.30
2023-11-05T05:22:14.817Z,5.30
2023-11-05T05:24:42.307Z,5.30
2023-11-05T05:27:09.234Z,5.30
2023-11-05T05:29:36.238Z,5.30
2023-11-05T05:32:04.356Z,5.20
2023-11-05T05:34:31.504Z,5.20
2023-11-05T05:36:58.639Z,5.20
2023-11-05T05:39:25.607Z,5.20
2023-11-05T05:41:52.531Z,5.20
2023-11-05T05:44:22.366Z,5.20
2023-11-05T05:46:50.594Z,5.20
2023-11-05T05:49:17.575Z,5.10
2023-11-05T05:51:44.615Z,5.10
2023-11-05T05:54:29.514Z,5.10
2023-11-05T05:56:56.793Z,5.10
2023-11-05T05:59:23.735Z,5.20
2023-11-05T06:01:53.647Z,5.20
2023-11-05T06:04:20.611Z,5.20
2023-11-05T06:07:33.015Z,5.20
2023-11-05T06:10:13.367Z,5.20
2023-11-05T06:12:40.731Z,5.30
2023-11-05T06:15:11.918Z,5.30
2023-11-05T06:17:41.120Z,5.30
2023-11-05T06:20:09.329Z,5.40
2023-11-05T06:22:39.056Z,5.40
2023-11-05T06:25:09.848Z,5.40
2023-11-05T06:27:39.160Z,5.40
2023-11-05T06:30:07.724Z,5.30
2023-11-05T06:32:35.148Z,5.30
2023-11-05T06:35:02.618Z,5.30
2023-11-05T06:37:31.967Z,5.30
2023-11-05T06:39:59.238Z,5.30
2023-11-05T06:42:28.361Z,5.30
2023-11-05T06:44:55.254Z,5.30
2023-11-05T06:47:22.365Z,5.30
2023-11-05T06:49:49.375Z,5.40
2023-11-05T06:52:16.320Z,5.40
2023-11-05T06:54:43.334Z,5.40
2023-11-05T06:57:12.987Z,5.50
2023-11-05T06:59:40.074Z,5.50
2023-11-05T07:02:11.762Z,5.50
2023-11-05T07:04:39.116Z,5.60
2023-11-05T07:07:06.892Z,5.70
2023-11-05T07:09:33.994Z,5.70
2023-11-05T07:12:02.501Z,5.80
2023-11-05T07:14:29.428Z,5.90
2023-11-05T07:16:57.107Z,5.90
2023-11-05T07:19:24.142Z,6.00
2023-11-05T07:21:51.126Z,6.10
2023-11-05T07:24:18.167Z,6.30
2023-11-05T07:26:45.142Z,6.40
2023-11-05T07:29:14.915Z,6.50
2023-11-05T07:31:42.884Z,6.60
2023-11-05T07:34:11.895Z,6.90
2023-11-05T07:36:39.711Z,6.90
2023-11-05T07:39:11.326Z,7.00
2023-11-05T07:41:39.141Z,7.10
2023-11-05T07:44:06.876Z,7.20
2023-11-05T07:46:35.178Z,7.30
2023-11-05T07:49:02.782Z,7.80
2023-11-05T07:51:30.092Z,8.50
2023-11-05T07:53:57.169Z,9.30
2023-11-05T07:56:24.177Z,10.10
2023-11-05T07:58:52.072Z,10.90
2023-11-05T08:01:19.356Z,12.20
2023-11-05T08:03:46.527Z,13.00
2023-11-05T08:06:13.588Z,13.60
2023-11-05T08:08:40.561Z,14.00
2023-11-05T08:11:08.049Z,14.20
2023-11-05T08:13:35.161Z,14.40
2023-11-05T08:16:03.870Z,14.90
2023-11-05T08:18:31.031Z,15.50
2023-11-05T08:20:57.976Z,16.40
2023-11-05T08:23:24.922Z,16.80
2023-11-05T08:25:51.908Z,17.10
2023-11-05T08:28:25.306Z,17.70
2023-11-05T08:30:54.280Z,16.00
2023-11-05T08:33:21.831Z,16.60
2023-11-05T08:35:49.433Z,16.50
2023-11-05T08:38:16.454Z,15.90
2023-11-05T08:40:43.402Z,17.10
2023-11-05T08:43:10.389Z,17.00
2023-11-05T08:45:45.703Z,17.00
2023-11-05T08:48:17.533Z,17.20
2023-11-05T08:50:44.663Z,17.30
2023-11-05T08:53:11.575Z,16.70
2023-11-05T08:55:39.311Z,16.50
2023-11-05T08:58:06.445Z,17.00
2023-11-05T09:00:36.676Z,17.20
2023-11-05T09:03:05.810Z,17.10
2023-11-05T09:05:33.107Z,16.20
2023-11-05T09:08:00.185Z,15.90
2023-11-05T09:10:27.893Z,15.30
2023-11-05T09:12:56.168Z,15.10
2023-11-05T09:15:24.505Z,14.70
2023-11-05T09:17:52.078Z,14.20
2023-11-05T09:20:34.643Z,13.70
2023-11-05T09:23:03.120Z,13.00
2023-11-05T09:25:38.808Z,12.70
2023-11-05T09:28:11.174Z,12.40
2023-11-05T09:30:38.459Z,12.20
2023-11-05T09:33:10.078Z,11.70
2023-11-05T09:35:37.568Z,11.60
2023-11-05T09:38:04.902Z,11.60
2023-11-05T09:40:33.037Z,12.30
2023-11-05T09:43:02.729Z,12.80
2023-11-05T09:45:32.806Z,13.30
2023-11-05T09:48:02.431Z,13.70
2023-11-05T09:50:29.584Z,14.50
2023-11-05T09:53:12.519Z,14.60
2023-11-05T09:55:40.924Z,14.20
2023-11-05T09:58:10.695Z,13.60
2023-11-05T10:00:39.047Z,14.20
2023-11-05T10:03:09.443Z,15.40
2023-11-05T10:05:39.310Z,16.50
2023-11-05T10:08:07.636Z,17.20
2023-11-05T10:10:36.226Z,17.60
2023-11-05T10:13:07.138Z,17.30
2023-11-05T10:15:35.498Z,18.20
2023-11-05T10:18:02.848Z,17.20
2023-11-05T10:20:31.428Z,16.90
2023-11-05T10:23:02.793Z,16.00
2023-11-05T10:25:30.332Z,15.10
2023-11-05T10:27:59.368Z,14.40
2023-11-05T10:30:27.672Z,14.40
2023-11-05T10:32:55.153Z,14.10
2023-11-05T10:35:28.867Z,13.50
2023-11-05T10:37:56.825Z,12.80
2023-11-05T10:40:24.323Z,12.50
2023-11-05T10:42:52.320Z,12.60
2023-11-05T10:45:22.872Z,12.80
2023-11-05T10:47:53.159Z,12.90
2023-11-05T10:50:27.751Z,13.00
2023-11-05T10:56:34.321Z,12.70
2023-11-05T10:59:03.858Z,12.60
2023-11-05T11:01:33.066Z,12.80
2023-11-05T11:04:16.539Z,12.70
2023-11-05T11:06:46.015Z,12.40
2023-11-05T11:09:12.963Z,12.30
2023-11-05T11:11:42.325Z,12.10
2023-11-05T11:14:10.569Z,11.80
2023-11-05T11:16:41.579Z,11.60
2023-11-05T11:19:14.155Z,11.20
2023-11-05T11:22:03.284Z,11.20
2023-11-05T11:24:35.334Z,11.10
2023-11-05T11:27:05.938Z,10.90
2023-11-05T11:29:35.528Z,10.80
2023-11-05T11:32:03.754Z,10.60
2023-11-05T11:34:32.769Z,10.60
2023-11-05T11:37:01.073Z,10.50
2023-11-05T11:39:29.123Z,10.60
2023-11-05T11:41:56.709Z,10.50
2023-11-05T11:44:24.390Z,10.50
2023-11-05T11:46:51.943Z,10.40
2023-11-05T11:49:19.173Z,10.30
2023-11-05T11:51:46.342Z,10.30
2023-11-05T11:54:13.355Z,10.30
2023-11-05T11:56:44.575Z,10.30
2023-11-05T11:59:11.491Z,10.30
2023-11-05T12:01:45.426Z,10.20
2023-11-05T12:04:13.571Z,10.20
2023-11-05T12:06:44.531Z,10.20
2023-11-05T12:09:25.698Z,10.20
2023-11-05T12:11:54.725Z,10.10
2023-11-05T12:14:23.144Z,10.00
2023-11-05T12:16:50.954Z,10.00
2023-11-05T12:19:18.390Z,10.10
2023-11-05T12:21:46.530Z,10.00
2023-11-05T12:24:17.023Z,10.00
2023-11-05T12:26:44.439Z,10.10
2023-11-05T12:29:14.418Z,10.00
2023-11-05T12:32:04.184Z,9.90
2023-11-05T12:34:31.190Z,9.90
2023-11-05T12:36:58.611Z,10.00
2023-11-05T12:39:30.703Z,10.00
2023-11-05T12:42:00.333Z,10.00
2023-11-05T12:44:27.456Z,10.00
2023-11-05T12:46:54.548Z,10.00
2023-11-05T12:49:21.538Z,10.00
2023-11-05T12:51:48.541Z,9.90
2023-11-05T12:54:16.281Z,9.90
2023-11-05T12:56:43.979Z,9.90
2023-11-05T12:59:12.593Z,9.90
2023-11-05T13:01:41.008Z,10.00
2023-11-05T13:04:10.568Z,9.90
2023-11-05T13:06:37.811Z,9.90
2023-11-05T13:09:05.048Z,9.90
2023-11-05T13:11:31.981Z,9.90
2023-11-05T13:13:59.532Z,9.90
2023-11-05T13:16:27.574Z,9.90
2023-11-05T13:18:54.880Z,9.80
2023-11-05T13:21:21.880Z,9.80
2023-11-05T13:23:49.396Z,9.80
2023-11-05T13:26:17.404Z,9.80
2023-11-05T13:28:44.458Z,9.80
2023-11-05T13:31:11.553Z,9.80
2023-11-05T13:33:39.964Z,9.70
2023-11-05T13:36:08.530Z,9.70
2023-11-05T13:38:37.134Z,9.70
2023-11-05T13:41:04.658Z,9.70
2023-11-05T13:43:35.103Z,9.70
2023-11-05T13:46:02.547Z,9.70
2023-11-05T13:48:29.625Z,9.70
2023-11-05T13:50:56.666Z,9.70
2023-11-05T13:53:25.380Z,9.80
2023-11-05T13:55:52.564Z,9.80
2023-11-05T13:58:20.669Z,9.80
2023-11-05T14:00:49.610Z,9.80
2023-11-05T14:03:17.963Z,9.80
2023-11-05T14:05:46.393Z,9.80
2023-11-05T14:08:13.445Z,9.80
2023-11-05T14:10:40.427Z,9.80
2023-11-05T14:13:07.444Z,9.80
2023-11-05T14:15:34.408Z,9.80
2023-11-05T14:18:01.414Z,9.80
2023-11-05T14:20:28.492Z,9.80
2023-11-05T14:22:55.516Z,9.80
2023-11-05T14:25:23.933Z,9.80
2023-11-05T14:27:50.976Z,9.80
2023-11-05T14:30:18.129Z,9.80
2023-11-05T14:32:45.373Z,9.80
2023-11-05T14:35:12.521Z,9.70
2023-11-05T14:37:39.735Z,9.70
2023-11-05T14:40:10.751Z,9.70
2023-11-05T14:42:38.100Z,9.70
2023-11-05T14:45:14.978Z,9.60
2023-11-05T14:47:46.953Z,9.60
2023-11-05T14:50:14.079Z,9.60
2023-11-05T14:52:41.211Z,9.60
2023-11-05T14:55:09.157Z,9.60
2023-11-05T14:57:37.692Z,9.60
2023-11-05T15:00:07.434Z,9.50
2023-11-05T15:02:34.402Z,9.50
2023-11-05T15:05:01.416Z,9.40
2023-11-05T15:07:28.447Z,9.40
2023-11-05T15:09:56.962Z,9.40
2023-11-05T15:12:24.129Z,9.40
2023-11-05T15:14:51.195Z,9.40
2023-11-05T15:17:18.895Z,9.40
2023-11-05T15:19:47.419Z,9.30
2023-11-05T15:22:15.532Z,9.30
2023-11-05T15:24:42.456Z,9.30
2023-11-05T15:27:12.422Z,9.20
2023-11-05T15:29:40.815Z,9.20
2023-11-05T15:32:08.299Z,9.20
2023-11-05T15:34:36.004Z,9.30
2023-11-05T15:37:03.122Z,9.20
2023-11-05T15:39:31.195Z,9.20
2023-11-05T15:41:58.516Z,9.20
2023-11-05T15:44:26.533Z,9.20
2023-11-05T15:46:54.770Z,9.20
2023-11-05T15:49:21.750Z,9.20
2023-11-05T15:51:48.672Z,9.20
2023-11-05T15:54:15.617Z,9.20
2023-11-05T15:56:42.905Z,9.20
2023-11-05T15:59:10.821Z,9.20
2023-11-05T16:01:40.188Z,9.20
2023-11-05T16:04:08.208Z,9.20
2023-11-05T16:06:35.845Z,9.30
2023-11-05T16:09:02.915Z,9.30
2023-11-05T16:11:30.089Z,9.30
2023-11-05T16:13:57.937Z,9.30
2023-11-05T16:16:25.018Z,9.30
2023-11-05T16:18:56.829Z,9.30
2023-11-05T16:21:24.161Z,9.30
2023-11-05T16:23:51.345Z,9.40
2023-11-05T16:26:19.114Z,9.40
2023-11-05T16:28:46.347Z,9.40
2023-11-05T16:31:13.364Z,9.40
2023-11-05T16:33:44.134Z,9.40
2023-11-05T16:36:11.111Z,9.40
2023-11-05T16:38:38.119Z,9.40
2023-11-05T16:41:05.735Z,9.40
2023-11-05T16:43:32.898Z,9.40
2023-11-05T16:46:00.344Z,9.40
2023-11-05T16:48:27.793Z,9.40
2023-11-05T16:50:54.767Z,9.40
2023-11-05T16:53:21.979Z,9.40
2023-11-05T16:55:49.782Z,9.40
2023-11-05T16:58:17.260Z,9.40
2023-11-05T17:00:44.823Z,9.40
2023-11-05T17:03:11.977Z,9.40
2023-11-05T17:05:39.075Z,9.30
2023-11-05T17:08:06.181Z,9.40
2023-11-05T17:10:34.214Z,9.30
2023-11-05T17:13:01.479Z,9.30
2023-11-05T17:15:28.710Z,9.30
2023-11-05T17:17:56.290Z,9.30
2023-11-05T17:20:23.550Z,9.30
2023-11-05T17:22:50.677Z,9.30
2023-11-05T17:25:18.778Z,9.30
2023-11-05T17:27:48.284Z,9.20
2023-11-05T17:30:17.744Z,9.30
2023-11-05T17:32:44.960Z,9.20
2023-11-05T17:35:12.160Z,9.20
2023-11-05T17:37:39.342Z,9.20
2023-11-05T17:40:07.505Z,9.20
2023-11-05T17:42:34.668Z,9.20
2023-11-05T17:45:02.929Z,9.20
2023-11-05T17:47:30.151Z,9.10
2023-11-05T17:49:57.161Z,9.10
2023-11-05T17:52:26.523Z,9.20
2023-11-05T17:54:56.570Z,9.20
2023-11-05T17:57:24.046Z,9.20
2023-11-05T17:59:50.998Z,9.10
2023-11-05T18:02:19.202Z,9.10
2023-11-05T18:04:46.201Z,9.10
2023-11-05T18:07:13.966Z,9.10
2023-11-05T18:09:40.892Z,9.10
2023-11-05T18:12:08.477Z,9.10
2023-11-05T18:14:35.636Z,9.10
2023-11-05T18:17:02.915Z,9.10
2023-11-05T18:19:29.903Z,9.10
2023-11-05T18:21:56.949Z,9.00
2023-11-05T18:24:24.024Z,9.00
2023-11-05T18:26:51.294Z,9.00
2023-11-05T18:29:18.433Z,9.00
2023-11-05T18:31:45.564Z,9.00
2023-11-05T18:34:12.708Z,9.00
2023-11-05T18:36:47.189Z,9.00
2023-11-05T18:39:17.817Z,9.00
2023-11-05T18:41:45.679Z,9.00
2023-11-05T18:44:13.021Z,9.10
2023-11-05T18:46:42.379Z,9.10
2023-11-05T18:49:09.677Z,9.10
2023-11-05T18:51:37.885Z,9.10
2023-11-05T18:54:05.392Z,9.10
2023-11-05T18:56:33.968Z,9.10
2023-11-05T18:59:01.139Z,9.10
2023-11-05T19:01:28.268Z,9.10
2023-11-05T19:03:55.532Z,9.10
2023-11-05T19:06:23.196Z,9.20
2023-11-05T19:08:50.198Z,9.20
2023-11-05T19:11:17.855Z,9.20
2023-11-05T19:13:49.545Z,9.30
2023-11-05T19:16:17.764Z,9.30
2023-11-05T19:18:45.072Z,9.30
2023-11-05T19:21:12.608Z,9.30
2023-11-05T19:23:39.865Z,9.30
2023-11-05T19:26:07.054Z,9.30
2023-11-05T19:28:34.019Z,9.30
2023-11-05T19:31:01.987Z,9.20
2023-11-05T19:33:29.157Z,9.20
2023-11-05T19:35:56.297Z,9.20
2023-11-05T19:38:23.288Z,9.20
2023-11-05T19:40:52.536Z,9.20
2023-11-05T19:43:21.376Z,9.20
2023-11-05T19:45:49.228Z,9.20
2023-11-05T19:48:16.330Z,9.20
2023-11-05T19:50:43.290Z,9.20
2023-11-05T19:53:11.632Z,9.20
2023-11-05T19:55:40.079Z,9.20
2023-11-05T19:58:09.013Z,9.20
2023-11-05T20:00:36.668Z,9.10
2023-11-05T20:03:04.002Z,9.10
2023-11-05T20:05:31.184Z,9.10
2023-11-05T20:07:58.553Z,9.10
2023-11-05T20:10:25.702Z,9.10
2023-11-05T20:12:54.440Z,9.00
2023-11-05T20:15:21.798Z,9.00
2023-11-05T20:17:49.006Z,9.00
2023-11-05T20:20:16.139Z,9.00
2023-11-05T20:22:43.307Z,9.00
2023-11-05T20:25:10.491Z,8.90
2023-11-05T20:27:40.587Z,8.90
2023-11-05T20:30:08.941Z,8.80
2023-11-05T20:32:36.054Z,8.90
2023-11-05T20:35:04.139Z,8.80
2023-11-05T20:37:36.778Z,8.80
2023-11-05T20:40:05.698Z,8.80
2023-11-05T20:42:32.772Z,8.80
2023-11-05T20:44:59.984Z,8.80
2023-11-05T20:47:27.102Z,8.80
2023-11-05T20:49:54.112Z,8.80
2023-11-05T20:52:21.150Z,8.80
2023-11-05T20:54:48.269Z,8.70
2023-11-05T20:57:15.992Z,8.80
2023-11-05T20:59:43.813Z,8.70
2023-11-05T21:02:10.836Z,8.70
2023-11-05T21:04:39.216Z,8.70
2023-11-05T21:07:10.146Z,8.70
2023-11-05T21:09:38.527Z,8.70
2023-11-05T21:12:05.924Z,8.60
2023-11-05T21:14:33.048Z,8.60
2023-11-05T21:17:00.122Z,8.60
2023-11-05T21:19:27.060Z,8.60
2023-11-05T21:21:54.241Z,8.60
2023-11-05T21:24:22.682Z,8.50
2023-11-05T21:26:49.612Z,8.50
2023-11-05T21:29:18.324Z,8.50
2023-11-05T21:31:45.421Z,8.40
2023-11-05T21:34:12.651Z,8.50
2023-11-05T21:36:39.704Z,8.40
2023-11-05T21:39:12.816Z,8.40
2023-11-05T21:41:40.897Z,8.40
2023-11-05T21:44:08.029Z,8.40
2023-11-05T21:46:35.038Z,8.40
2023-11-05T21:49:02.170Z,8.40
2023-11-05T21:51:30.234Z,8.40
2023-11-05T21:53:57.192Z,8.40
2023-11-05T21:56:24.109Z,8.40
2023-11-05T21:58:51.035Z,8.40
2023-11-05T22:01:18.292Z,8.40
2023-11-05T22:03:45.370Z,8.30
2023-11-05T22:06:13.375Z,8.30
2023-11-05T22:08:40.399Z,8.30
2023-11-05T22:11:07.673Z,8.30
2023-11-05T22:13:34.617Z,8.30
2023-11-05T22:16:01.931Z,8.30
2023-11-05T22:18:28.953Z,8.30
2023-11-05T22:20:56.931Z,8.30
2023-11-05T22:23:24.495Z,8.30
2023-11-05T22:25:52.580Z,8.30
2023-11-05T22:28:19.496Z,8.30
2023-11-05T22:30:46.609Z,8.30
2023-11-05T22:33:13.638Z,8.30
2023-11-05T22:35:40.651Z,8.30
2023-11-05T22:38:08.553Z,8.30
2023-11-05T22:40:36.834Z,8.30
2023-11-05T22:43:03.762Z,8.20
2023-11-05T22:45:31.878Z,8.20
2023-11-05T22:47:58.993Z,8.30
2023-11-05T22:50:26.014Z,8.20
2023-11-05T22:52:53.990Z,8.20
2023-11-05T22:55:24.502Z,8.20
2023-11-05T22:57:51.409Z,8.20
2023-11-05T23:00:29.734Z,8.20
2023-11-05T23:02:58.062Z,8.20
2023-11-05T23:05:25.944Z,8.20
2023-11-05T23:07:53.041Z,8.10
2023-11-05T23:10:20.041Z,8.10
2023-11-05T23:12:48.287Z,8.10
2023-11-05T23:15:15.443Z,8.20
2023-11-05T23:17:43.054Z,8.20
2023-11-05T23:20:10.452Z,8.20
2023-11-05T23:22:37.405Z,8.20
2023-11-05T23:25:04.664Z,8.20
2023-11-05T23:27:31.683Z,8.10
2023-11-05T23:29:59.543Z,8.10
2023-11-05T23:32:26.546Z,8.10
2023-11-05T23:34:53.567Z,8.10
2023-11-05T23:37:21.121Z,8.10
2023-11-05T23:39:48.314Z,8.10
2023-11-05T23:42:17.054Z,8.10
2023-11-05T23:44:45.733Z,8.10
2023-11-05T23:47:16.795Z,8.10
2023-11-05T23:49:44.540Z,8.10
2023-11-05T23:52:11.858Z,8.10
2023-11-05T23:54:38.884Z,8.00
2023-11-05T23:57:06.010Z,8.00
2023-11-05T23:59:32.996Z,8.00
